sensor_id;sensor_type;location;lat;lon;timestamp;pressure;altitude;pressure_sealevel;temperature;humidity
550;BME280;20066;48.764;9.176;2023-07-22T00:00:45;98153.44;;;18.89;56.05
550;BME280;20066;48.764;9.176;2023-07-22T00:03:13;98155.84;;;19.21;55.39
550;BME280;20066;48.764;9.176;2023-07-22T00:05:41;98152.38;;;18.86;56.50
550;BME280;20066;48.764;9.176;2023-07-22T00:08:10;98165.28;;;18.95;56.48
550;BME280;20066;48.764;9.176;2023-07-22T00:10:40;98155.56;;;19.06;55.84
550;BME280;20066;48.764;9.176;2023-07-22T00:13:08;98154.59;;;19.00;56.56
550;BME280;20066;48.764;9.176;2023-07-22T00:15:38;98161.41;;;19.52;55.13
550;BME280;20066;48.764;9.176;2023-07-22T00:18:05;98163.56;;;18.25;58.99
550;BME280;20066;48.764;9.176;2023-07-22T00:20:33;98157.69;;;18.26;59.35
550;BME280;20066;48.764;9.176;2023-07-22T00:23:01;98155.50;;;18.72;57.89
550;BME280;20066;48.764;9.176;2023-07-22T00:25:29;98149.97;;;19.10;56.61
550;BME280;20066;48.764;9.176;2023-07-22T00:27:57;98156.94;;;19.45;55.47
550;BME280;20066;48.764;9.176;2023-07-22T00:30:24;98154.47;;;19.38;55.69
550;BME280;20066;48.764;9.176;2023-07-22T00:32:55;98149.69;;;19.08;56.14
550;BME280;20066;48.764;9.176;2023-07-22T00:35:22;98158.78;;;18.92;57.25
550;BME280;20066;48.764;9.176;2023-07-22T00:37:50;98151.03;;;19.25;56.40
550;BME280;20066;48.764;9.176;2023-07-22T00:40:18;98149.97;;;19.44;55.81
550;BME280;20066;48.764;9.176;2023-07-22T00:42:46;98155.66;;;19.15;56.75
550;BME280;20066;48.764;9.176;2023-07-22T00:45:14;98156.50;;;18.27;58.50
550;BME280;20066;48.764;9.176;2023-07-22T00:47:42;98155.19;;;18.19;59.83
550;BME280;20066;48.764;9.176;2023-07-22T00:50:11;98150.38;;;18.86;57.38
550;BME280;20066;48.764;9.176;2023-07-22T00:52:39;98158.00;;;18.92;57.60
550;BME280;20066;48.764;9.176;2023-07-22T00:55:07;98162.22;;;19.05;57.26
550;BME280;20066;48.764;9.176;2023-07-22T00:57:36;98158.16;;;19.10;56.65
550;BME280;20066;48.764;9.176;2023-07-22T01:00:05;98148.22;;;18.69;57.81
550;BME280;20066;48.764;9.176;2023-07-22T01:02:35;98147.69;;;18.23;58.78
550;BME280;20066;48.764;9.176;2023-07-22T01:05:03;98143.81;;;18.97;57.34
550;BME280;20066;48.764;9.176;2023-07-22T01:07:34;98138.97;;;19.13;56.62
550;BME280;20066;48.764;9.176;2023-07-22T01:10:02;98141.34;;;18.77;57.93
550;BME280;20066;48.764;9.176;2023-07-22T01:12:32;98138.78;;;18.95;57.46
550;BME280;20066;48.764;9.176;2023-07-22T01:14:59;98135.56;;;18.75;57.64
550;BME280;20066;48.764;9.176;2023-07-22T01:17:30;98136.13;;;18.70;58.22
550;BME280;20066;48.764;9.176;2023-07-22T01:19:58;98141.03;;;17.99;60.76
550;BME280;20066;48.764;9.176;2023-07-22T01:22:27;98129.94;;;17.23;63.25
550;BME280;20066;48.764;9.176;2023-07-22T01:24:56;98132.56;;;17.68;61.84
550;BME280;20066;48.764;9.176;2023-07-22T01:27:24;98130.69;;;17.65;61.57
550;BME280;20066;48.764;9.176;2023-07-22T01:29:52;98133.13;;;17.76;61.48
550;BME280;20066;48.764;9.176;2023-07-22T01:32:20;98131.66;;;18.25;59.98
550;BME280;20066;48.764;9.176;2023-07-22T01:34:48;98126.97;;;18.26;59.89
550;BME280;20066;48.764;9.176;2023-07-22T01:37:17;98127.09;;;18.09;59.75
550;BME280;20066;48.764;9.176;2023-07-22T01:39:45;98123.28;;;18.07;60.09
550;BME280;20066;48.764;9.176;2023-07-22T01:42:14;98122.63;;;18.28;59.49
550;BME280;20066;48.764;9.176;2023-07-22T01:44:42;98112.63;;;18.00;59.84
550;BME280;20066;48.764;9.176;2023-07-22T01:47:10;98126.50;;;17.89;60.69
550;BME280;20066;48.764;9.176;2023-07-22T01:49:37;98121.28;;;17.95;60.46
550;BME280;20066;48.764;9.176;2023-07-22T01:52:06;98127.19;;;18.19;59.48
550;BME280;20066;48.764;9.176;2023-07-22T01:54:34;98130.97;;;17.96;60.81
550;BME280;20066;48.764;9.176;2023-07-22T01:57:02;98117.41;;;18.21;59.78
550;BME280;20066;48.764;9.176;2023-07-22T01:59:31;98121.06;;;17.89;61.01
550;BME280;20066;48.764;9.176;2023-07-22T02:01:59;98119.91;;;18.16;59.98
550;BME280;20066;48.764;9.176;2023-07-22T02:04:26;98118.91;;;17.97;60.56
550;BME280;20066;48.764;9.176;2023-07-22T02:06:54;98119.19;;;17.86;60.92
550;BME280;20066;48.764;9.176;2023-07-22T02:09:22;98120.34;;;18.01;60.41
550;BME280;20066;48.764;9.176;2023-07-22T02:11:50;98119.44;;;17.92;60.80
550;BME280;20066;48.764;9.176;2023-07-22T02:14:17;98123.22;;;17.82;61.08
550;BME280;20066;48.764;9.176;2023-07-22T02:16:47;98121.75;;;18.06;60.37
550;BME280;20066;48.764;9.176;2023-07-22T02:19:14;98121.22;;;18.24;59.69
550;BME280;20066;48.764;9.176;2023-07-22T02:21:42;98124.69;;;18.12;60.05
550;BME280;20066;48.764;9.176;2023-07-22T02:24:10;98128.81;;;17.91;60.71
550;BME280;20066;48.764;9.176;2023-07-22T02:26:38;98133.16;;;17.47;61.92
550;BME280;20066;48.764;9.176;2023-07-22T02:29:06;98137.91;;;17.71;61.61
550;BME280;20066;48.764;9.176;2023-07-22T02:31:35;98132.34;;;17.62;61.33
550;BME280;20066;48.764;9.176;2023-07-22T02:34:04;98134.59;;;17.51;61.63
550;BME280;20066;48.764;9.176;2023-07-22T02:36:32;98129.09;;;17.80;60.48
550;BME280;20066;48.764;9.176;2023-07-22T02:39:00;98125.78;;;18.01;59.96
550;BME280;20066;48.764;9.176;2023-07-22T02:41:27;98130.81;;;18.16;59.39
550;BME280;20066;48.764;9.176;2023-07-22T02:43:55;98137.06;;;17.87;59.86
550;BME280;20066;48.764;9.176;2023-07-22T02:46:23;98129.13;;;17.93;60.24
550;BME280;20066;48.764;9.176;2023-07-22T02:48:53;98133.34;;;17.68;61.11
550;BME280;20066;48.764;9.176;2023-07-22T02:51:22;98125.03;;;18.01;59.93
550;BME280;20066;48.764;9.176;2023-07-22T02:53:50;98133.94;;;18.01;59.98
550;BME280;20066;48.764;9.176;2023-07-22T02:56:18;98133.97;;;18.27;59.21
550;BME280;20066;48.764;9.176;2023-07-22T02:58:46;98132.72;;;17.90;59.94
550;BME280;20066;48.764;9.176;2023-07-22T03:01:14;98133.19;;;18.01;59.73
550;BME280;20066;48.764;9.176;2023-07-22T03:03:42;98128.94;;;18.13;59.42
550;BME280;20066;48.764;9.176;2023-07-22T03:06:10;98122.81;;;17.96;59.95
550;BME280;20066;48.764;9.176;2023-07-22T03:08:39;98121.13;;;18.15;59.62
550;BME280;20066;48.764;9.176;2023-07-22T03:11:07;98122.44;;;18.23;59.13
550;BME280;20066;48.764;9.176;2023-07-22T03:13:35;98119.59;;;18.39;58.63
550;BME280;20066;48.764;9.176;2023-07-22T03:16:03;98127.00;;;18.13;59.35
550;BME280;20066;48.764;9.176;2023-07-22T03:18:31;98128.50;;;18.01;59.67
550;BME280;20066;48.764;9.176;2023-07-22T03:20:59;98120.00;;;18.25;58.56
550;BME280;20066;48.764;9.176;2023-07-22T03:23:27;98115.41;;;17.84;59.99
550;BME280;20066;48.764;9.176;2023-07-22T03:25:57;98125.25;;;18.06;59.28
550;BME280;20066;48.764;9.176;2023-07-22T03:28:24;98122.47;;;17.81;59.98
550;BME280;20066;48.764;9.176;2023-07-22T03:30:53;98131.84;;;17.93;59.90
550;BME280;20066;48.764;9.176;2023-07-22T03:33:21;98127.97;;;17.65;60.67
550;BME280;20066;48.764;9.176;2023-07-22T03:35:49;98122.09;;;17.25;61.20
550;BME280;20066;48.764;9.176;2023-07-22T03:38:16;98116.59;;;17.70;60.87
550;BME280;20066;48.764;9.176;2023-07-22T03:40:47;98121.03;;;16.90;62.77
550;BME280;20066;48.764;9.176;2023-07-22T03:43:16;98122.31;;;17.59;61.04
550;BME280;20066;48.764;9.176;2023-07-22T03:45:44;98118.50;;;17.57;60.82
550;BME280;20066;48.764;9.176;2023-07-22T03:48:11;98127.34;;;17.61;60.80
550;BME280;20066;48.764;9.176;2023-07-22T03:50:39;98115.84;;;17.41;61.33
550;BME280;20066;48.764;9.176;2023-07-22T03:53:07;98120.97;;;17.39;61.33
550;BME280;20066;48.764;9.176;2023-07-22T03:55:35;98111.13;;;17.28;61.29
550;BME280;20066;48.764;9.176;2023-07-22T03:58:02;98117.63;;;16.86;63.19
550;BME280;20066;48.764;9.176;2023-07-22T04:00:32;98119.75;;;17.11;62.02
550;BME280;20066;48.764;9.176;2023-07-22T04:02:59;98124.38;;;17.26;61.67
550;BME280;20066;48.764;9.176;2023-07-22T04:05:27;98126.53;;;17.03;62.53
550;BME280;20066;48.764;9.176;2023-07-22T04:07:55;98119.72;;;17.27;61.52
550;BME280;20066;48.764;9.176;2023-07-22T04:10:23;98128.47;;;17.02;62.52
550;BME280;20066;48.764;9.176;2023-07-22T04:12:51;98119.06;;;17.23;61.80
550;BME280;20066;48.764;9.176;2023-07-22T04:15:18;98123.28;;;17.24;61.14
550;BME280;20066;48.764;9.176;2023-07-22T04:17:47;98126.50;;;17.77;59.72
550;BME280;20066;48.764;9.176;2023-07-22T04:20:15;98125.88;;;17.56;60.44
550;BME280;20066;48.764;9.176;2023-07-22T04:22:44;98121.00;;;17.64;60.34
550;BME280;20066;48.764;9.176;2023-07-22T04:25:12;98122.47;;;17.40;60.67
550;BME280;20066;48.764;9.176;2023-07-22T04:27:41;98119.25;;;17.57;59.97
550;BME280;20066;48.764;9.176;2023-07-22T04:30:09;98118.06;;;17.58;60.33
550;BME280;20066;48.764;9.176;2023-07-22T04:32:37;98131.81;;;17.80;59.76
550;BME280;20066;48.764;9.176;2023-07-22T04:35:07;98120.84;;;17.96;58.88
550;BME280;20066;48.764;9.176;2023-07-22T04:37:36;98119.47;;;18.17;58.61
550;BME280;20066;48.764;9.176;2023-07-22T04:40:05;98119.38;;;18.08;59.08
550;BME280;20066;48.764;9.176;2023-07-22T04:42:35;98115.44;;;18.09;58.38
550;BME280;20066;48.764;9.176;2023-07-22T04:45:03;98111.84;;;18.25;58.15
550;BME280;20066;48.764;9.176;2023-07-22T04:47:32;98119.72;;;18.23;58.08
550;BME280;20066;48.764;9.176;2023-07-22T04:50:00;98118.94;;;18.22;58.18
550;BME280;20066;48.764;9.176;2023-07-22T04:52:30;98123.94;;;18.24;58.12
550;BME280;20066;48.764;9.176;2023-07-22T04:54:57;98126.94;;;18.64;57.15
550;BME280;20066;48.764;9.176;2023-07-22T04:57:26;98124.25;;;18.51;57.21
550;BME280;20066;48.764;9.176;2023-07-22T04:59:54;98120.19;;;18.56;57.54
550;BME280;20066;48.764;9.176;2023-07-22T05:02:21;98128.81;;;18.67;57.15
550;BME280;20066;48.764;9.176;2023-07-22T05:04:49;98124.75;;;18.71;56.90
550;BME280;20066;48.764;9.176;2023-07-22T05:07:17;98122.53;;;18.19;57.59
550;BME280;20066;48.764;9.176;2023-07-22T05:09:46;98118.56;;;18.58;57.58
550;BME280;20066;48.764;9.176;2023-07-22T05:12:15;98122.44;;;18.95;56.82
550;BME280;20066;48.764;9.176;2023-07-22T05:14:42;98127.09;;;19.07;56.43
550;BME280;20066;48.764;9.176;2023-07-22T05:17:10;98123.00;;;18.90;56.80
550;BME280;20066;48.764;9.176;2023-07-22T05:19:38;98131.88;;;18.43;57.59
550;BME280;20066;48.764;9.176;2023-07-22T05:22:06;98133.19;;;18.52;57.97
550;BME280;20066;48.764;9.176;2023-07-22T05:24:34;98132.59;;;18.82;57.33
550;BME280;20066;48.764;9.176;2023-07-22T05:27:04;98130.56;;;18.48;58.02
550;BME280;20066;48.764;9.176;2023-07-22T05:29:35;98128.63;;;17.98;59.82
550;BME280;20066;48.764;9.176;2023-07-22T05:32:03;98140.41;;;17.37;61.43
550;BME280;20066;48.764;9.176;2023-07-22T05:34:39;98127.31;;;18.40;58.55
550;BME280;20066;48.764;9.176;2023-07-22T05:37:07;98137.13;;;18.25;58.74
550;BME280;20066;48.764;9.176;2023-07-22T05:39:35;98136.41;;;18.97;57.30
550;BME280;20066;48.764;9.176;2023-07-22T05:42:05;98133.38;;;18.70;58.28
550;BME280;20066;48.764;9.176;2023-07-22T05:44:33;98141.88;;;18.72;57.93
550;BME280;20066;48.764;9.176;2023-07-22T05:47:01;98140.19;;;19.34;56.94
550;BME280;20066;48.764;9.176;2023-07-22T05:49:29;98139.72;;;19.70;55.74
550;BME280;20066;48.764;9.176;2023-07-22T05:51:57;98139.19;;;19.62;55.16
550;BME280;20066;48.764;9.176;2023-07-22T05:54:25;98147.06;;;19.39;55.92
550;BME280;20066;48.764;9.176;2023-07-22T05:56:52;98150.28;;;19.46;56.58
550;BME280;20066;48.764;9.176;2023-07-22T05:59:22;98144.16;;;19.77;56.19
550;BME280;20066;48.764;9.176;2023-07-22T06:01:50;98152.25;;;19.46;56.32
550;BME280;20066;48.764;9.176;2023-07-22T06:04:18;98151.41;;;19.71;55.00
550;BME280;20066;48.764;9.176;2023-07-22T06:06:46;98159.19;;;19.59;55.28
550;BME280;20066;48.764;9.176;2023-07-22T06:09:14;98171.94;;;19.62;55.72
550;BME280;20066;48.764;9.176;2023-07-22T06:14:09;98174.84;;;19.46;56.03
550;BME280;20066;48.764;9.176;2023-07-22T06:16:38;98174.94;;;19.77;55.40
550;BME280;20066;48.764;9.176;2023-07-22T06:19:06;98176.78;;;20.02;54.47
550;BME280;20066;48.764;9.176;2023-07-22T06:21:34;98178.94;;;19.85;54.21
550;BME280;20066;48.764;9.176;2023-07-22T06:24:02;98184.56;;;19.47;55.12
550;BME280;20066;48.764;9.176;2023-07-22T06:26:30;98177.50;;;20.02;54.11
550;BME280;20066;48.764;9.176;2023-07-22T06:28:58;98179.72;;;19.86;55.15
550;BME280;20066;48.764;9.176;2023-07-22T06:31:25;98180.81;;;19.97;53.74
550;BME280;20066;48.764;9.176;2023-07-22T06:33:58;98177.63;;;19.68;54.62
550;BME280;20066;48.764;9.176;2023-07-22T06:36:27;98187.16;;;20.16;53.38
550;BME280;20066;48.764;9.176;2023-07-22T06:38:55;98186.22;;;20.81;51.76
550;BME280;20066;48.764;9.176;2023-07-22T06:41:23;98188.09;;;21.21;52.57
550;BME280;20066;48.764;9.176;2023-07-22T06:43:51;98184.06;;;20.76;52.68
550;BME280;20066;48.764;9.176;2023-07-22T06:46:19;98189.97;;;20.65;54.56
550;BME280;20066;48.764;9.176;2023-07-22T06:48:47;98188.53;;;20.21;53.17
550;BME280;20066;48.764;9.176;2023-07-22T06:51:17;98176.72;;;20.55;53.33
550;BME280;20066;48.764;9.176;2023-07-22T06:53:44;98181.75;;;20.65;52.71
550;BME280;20066;48.764;9.176;2023-07-22T06:56:12;98182.91;;;20.95;51.69
550;BME280;20066;48.764;9.176;2023-07-22T06:58:40;98173.50;;;21.14;51.22
550;BME280;20066;48.764;9.176;2023-07-22T07:01:08;98187.69;;;21.31;50.71
550;BME280;20066;48.764;9.176;2023-07-22T07:03:36;98182.22;;;21.59;48.91
550;BME280;20066;48.764;9.176;2023-07-22T07:06:04;98183.13;;;21.56;50.62
550;BME280;20066;48.764;9.176;2023-07-22T07:08:33;98185.69;;;21.77;49.54
550;BME280;20066;48.764;9.176;2023-07-22T07:11:01;98188.31;;;21.44;50.87
550;BME280;20066;48.764;9.176;2023-07-22T07:13:28;98184.31;;;22.00;47.66
550;BME280;20066;48.764;9.176;2023-07-22T07:16:20;98181.94;;;20.80;51.46
550;BME280;20066;48.764;9.176;2023-07-22T07:18:49;98182.22;;;21.49;50.00
550;BME280;20066;48.764;9.176;2023-07-22T07:21:18;98181.44;;;22.37;48.43
550;BME280;20066;48.764;9.176;2023-07-22T07:23:47;98192.00;;;22.29;46.77
550;BME280;20066;48.764;9.176;2023-07-22T07:26:15;98179.31;;;21.53;49.74
550;BME280;20066;48.764;9.176;2023-07-22T07:28:43;98185.50;;;21.90;48.57
550;BME280;20066;48.764;9.176;2023-07-22T07:31:12;98181.31;;;21.71;48.79
550;BME280;20066;48.764;9.176;2023-07-22T07:33:40;98186.78;;;21.52;49.76
550;BME280;20066;48.764;9.176;2023-07-22T07:36:09;98187.69;;;22.37;47.96
550;BME280;20066;48.764;9.176;2023-07-22T07:38:36;98192.44;;;23.02;46.58
550;BME280;20066;48.764;9.176;2023-07-22T07:41:06;98186.44;;;23.28;45.62
550;BME280;20066;48.764;9.176;2023-07-22T07:43:37;98183.63;;;23.61;45.38
550;BME280;20066;48.764;9.176;2023-07-22T07:46:16;98177.31;;;23.84;43.26
550;BME280;20066;48.764;9.176;2023-07-22T07:48:45;98178.72;;;23.94;41.05
550;BME280;20066;48.764;9.176;2023-07-22T07:51:14;98177.22;;;23.78;44.54
550;BME280;20066;48.764;9.176;2023-07-22T07:53:42;98179.28;;;23.84;41.67
550;BME280;20066;48.764;9.176;2023-07-22T07:56:12;98184.47;;;23.67;41.30
550;BME280;20066;48.764;9.176;2023-07-22T07:58:40;98181.56;;;23.85;40.84
550;BME280;20066;48.764;9.176;2023-07-22T08:01:08;98170.94;;;23.63;42.61
550;BME280;20066;48.764;9.176;2023-07-22T08:03:36;98181.09;;;22.86;43.36
550;BME280;20066;48.764;9.176;2023-07-22T08:06:04;98182.56;;;24.11;39.82
550;BME280;20066;48.764;9.176;2023-07-22T08:08:33;98179.44;;;24.53;39.66
550;BME280;20066;48.764;9.176;2023-07-22T08:11:02;98185.47;;;24.23;39.24
550;BME280;20066;48.764;9.176;2023-07-22T08:13:31;98173.16;;;23.35;39.47
550;BME280;20066;48.764;9.176;2023-07-22T08:16:00;98178.31;;;24.45;39.50
550;BME280;20066;48.764;9.176;2023-07-22T08:18:29;98174.94;;;24.36;37.67
550;BME280;20066;48.764;9.176;2023-07-22T08:20:57;98174.59;;;24.63;38.72
550;BME280;20066;48.764;9.176;2023-07-22T08:23:25;98176.78;;;25.14;38.38
550;BME280;20066;48.764;9.176;2023-07-22T08:25:53;98180.31;;;24.45;38.78
550;BME280;20066;48.764;9.176;2023-07-22T08:28:21;98174.56;;;23.99;38.32
550;BME280;20066;48.764;9.176;2023-07-22T08:30:50;98167.03;;;24.58;37.82
550;BME280;20066;48.764;9.176;2023-07-22T08:33:21;98170.25;;;24.91;37.97
550;BME280;20066;48.764;9.176;2023-07-22T08:36:06;98173.44;;;25.97;35.52
550;BME280;20066;48.764;9.176;2023-07-22T08:38:34;98173.16;;;26.52;34.02
550;BME280;20066;48.764;9.176;2023-07-22T08:41:01;98167.38;;;26.50;35.20
550;BME280;20066;48.764;9.176;2023-07-22T08:43:29;98154.06;;;25.60;35.62
550;BME280;20066;48.764;9.176;2023-07-22T08:46:00;98157.66;;;25.46;35.65
550;BME280;20066;48.764;9.176;2023-07-22T08:48:31;98159.81;;;25.88;36.43
550;BME280;20066;48.764;9.176;2023-07-22T08:51:03;98163.81;;;26.44;35.24
550;BME280;20066;48.764;9.176;2023-07-22T08:53:31;98161.06;;;26.81;34.07
550;BME280;20066;48.764;9.176;2023-07-22T08:56:00;98157.16;;;27.04;33.61
550;BME280;20066;48.764;9.176;2023-07-22T08:58:28;98159.00;;;26.07;32.68
550;BME280;20066;48.764;9.176;2023-07-22T09:00:59;98151.69;;;25.73;34.79
550;BME280;20066;48.764;9.176;2023-07-22T09:03:28;98155.63;;;26.61;33.78
550;BME280;20066;48.764;9.176;2023-07-22T09:05:56;98164.81;;;26.46;31.46
550;BME280;20066;48.764;9.176;2023-07-22T09:08:24;98154.69;;;25.49;32.27
550;BME280;20066;48.764;9.176;2023-07-22T09:10:53;98158.47;;;25.52;31.95
550;BME280;20066;48.764;9.176;2023-07-22T09:13:21;98164.72;;;25.52;31.46
550;BME280;20066;48.764;9.176;2023-07-22T09:15:50;98156.50;;;25.12;33.14
550;BME280;20066;48.764;9.176;2023-07-22T09:18:20;98155.78;;;25.37;32.35
550;BME280;20066;48.764;9.176;2023-07-22T09:20:48;98159.78;;;25.56;33.74
550;BME280;20066;48.764;9.176;2023-07-22T09:23:17;98155.03;;;25.83;33.21
550;BME280;20066;48.764;9.176;2023-07-22T09:25:44;98155.44;;;26.01;31.75
550;BME280;20066;48.764;9.176;2023-07-22T09:28:12;98168.03;;;25.56;32.24
550;BME280;20066;48.764;9.176;2023-07-22T09:30:40;98154.25;;;25.56;34.46
550;BME280;20066;48.764;9.176;2023-07-22T09:33:22;98160.00;;;25.79;33.03
550;BME280;20066;48.764;9.176;2023-07-22T09:35:52;98160.88;;;25.24;34.60
550;BME280;20066;48.764;9.176;2023-07-22T09:38:23;98166.19;;;24.87;33.13
550;BME280;20066;48.764;9.176;2023-07-22T09:40:51;98169.78;;;25.13;34.57
550;BME280;20066;48.764;9.176;2023-07-22T09:43:22;98153.41;;;24.69;34.67
550;BME280;20066;48.764;9.176;2023-07-22T09:45:50;98162.53;;;25.16;34.54
550;BME280;20066;48.764;9.176;2023-07-22T09:48:22;98161.78;;;25.15;33.32
550;BME280;20066;48.764;9.176;2023-07-22T09:50:56;98155.81;;;25.63;33.69
550;BME280;20066;48.764;9.176;2023-07-22T09:53:23;98152.94;;;25.06;34.76
550;BME280;20066;48.764;9.176;2023-07-22T09:55:52;98154.63;;;25.69;33.53
550;BME280;20066;48.764;9.176;2023-07-22T09:58:21;98157.84;;;25.22;32.58
550;BME280;20066;48.764;9.176;2023-07-22T10:00:54;98149.91;;;26.01;34.75
550;BME280;20066;48.764;9.176;2023-07-22T10:03:26;98149.09;;;26.58;31.92
550;BME280;20066;48.764;9.176;2023-07-22T10:06:00;98144.22;;;26.79;31.91
550;BME280;20066;48.764;9.176;2023-07-22T10:08:30;98157.81;;;27.47;33.83
550;BME280;20066;48.764;9.176;2023-07-22T10:11:05;98145.75;;;25.34;33.50
550;BME280;20066;48.764;9.176;2023-07-22T10:13:36;98146.53;;;26.12;31.80
550;BME280;20066;48.764;9.176;2023-07-22T10:16:05;98132.16;;;25.30;31.42
550;BME280;20066;48.764;9.176;2023-07-22T10:18:35;98144.41;;;26.33;30.82
550;BME280;20066;48.764;9.176;2023-07-22T10:21:04;98151.78;;;26.47;30.98
550;BME280;20066;48.764;9.176;2023-07-22T10:23:32;98152.38;;;25.68;32.14
550;BME280;20066;48.764;9.176;2023-07-22T10:26:00;98150.63;;;25.70;32.32
550;BME280;20066;48.764;9.176;2023-07-22T10:28:29;98150.31;;;25.89;31.45
550;BME280;20066;48.764;9.176;2023-07-22T10:30:57;98148.59;;;27.08;31.23
550;BME280;20066;48.764;9.176;2023-07-22T10:33:26;98150.03;;;26.92;30.82
550;BME280;20066;48.764;9.176;2023-07-22T10:36:06;98139.34;;;26.26;30.82
550;BME280;20066;48.764;9.176;2023-07-22T10:38:35;98149.44;;;26.71;32.96
550;BME280;20066;48.764;9.176;2023-07-22T10:41:12;98141.03;;;26.92;31.60
550;BME280;20066;48.764;9.176;2023-07-22T10:43:40;98139.28;;;26.52;32.59
550;BME280;20066;48.764;9.176;2023-07-22T10:46:09;98134.97;;;26.82;29.19
550;BME280;20066;48.764;9.176;2023-07-22T10:48:39;98127.72;;;28.50;27.47
550;BME280;20066;48.764;9.176;2023-07-22T10:51:12;98122.16;;;28.55;27.11
550;BME280;20066;48.764;9.176;2023-07-22T10:53:42;98119.59;;;28.74;28.32
550;BME280;20066;48.764;9.176;2023-07-22T10:56:13;98118.91;;;27.68;30.90
550;BME280;20066;48.764;9.176;2023-07-22T10:59:00;98114.66;;;28.17;29.80
550;BME280;20066;48.764;9.176;2023-07-22T11:01:34;98115.31;;;26.32;30.83
550;BME280;20066;48.764;9.176;2023-07-22T11:04:06;98123.22;;;26.13;31.10
550;BME280;20066;48.764;9.176;2023-07-22T11:06:37;98117.75;;;25.93;33.21
550;BME280;20066;48.764;9.176;2023-07-22T11:09:05;98103.44;;;25.89;31.77
550;BME280;20066;48.764;9.176;2023-07-22T11:11:35;98109.03;;;27.39;28.56
550;BME280;20066;48.764;9.176;2023-07-22T11:14:14;98108.56;;;27.40;28.38
550;BME280;20066;48.764;9.176;2023-07-22T11:16:44;98120.16;;;26.05;32.10
550;BME280;20066;48.764;9.176;2023-07-22T11:19:17;98110.78;;;25.20;32.31
550;BME280;20066;48.764;9.176;2023-07-22T11:21:48;98096.91;;;25.60;32.08
550;BME280;20066;48.764;9.176;2023-07-22T11:24:17;98104.81;;;25.73;31.67
550;BME280;20066;48.764;9.176;2023-07-22T11:26:45;98102.31;;;26.38;31.07
550;BME280;20066;48.764;9.176;2023-07-22T11:29:14;98101.19;;;26.19;33.00
550;BME280;20066;48.764;9.176;2023-07-22T11:31:44;98105.44;;;26.57;32.57
550;BME280;20066;48.764;9.176;2023-07-22T11:34:13;98101.25;;;26.67;34.18
550;BME280;20066;48.764;9.176;2023-07-22T11:36:41;98101.03;;;28.35;28.89
550;BME280;20066;48.764;9.176;2023-07-22T11:39:13;98089.28;;;28.07;29.01
550;BME280;20066;48.764;9.176;2023-07-22T11:41:42;98094.28;;;29.11;30.34
550;BME280;20066;48.764;9.176;2023-07-22T11:44:11;98085.88;;;30.53;28.19
550;BME280;20066;48.764;9.176;2023-07-22T11:46:52;98093.63;;;32.63;27.15
550;BME280;20066;48.764;9.176;2023-07-22T11:49:27;98086.00;;;32.37;25.17
550;BME280;20066;48.764;9.176;2023-07-22T11:52:00;98072.91;;;27.81;30.31
550;BME280;20066;48.764;9.176;2023-07-22T11:54:31;98069.94;;;29.75;26.90
550;BME280;20066;48.764;9.176;2023-07-22T11:57:10;98062.09;;;30.03;26.83
550;BME280;20066;48.764;9.176;2023-07-22T11:59:40;98061.09;;;30.98;25.04
550;BME280;20066;48.764;9.176;2023-07-22T12:02:13;98054.03;;;32.11;25.16
550;BME280;20066;48.764;9.176;2023-07-22T12:04:43;98055.41;;;28.70;29.84
550;BME280;20066;48.764;9.176;2023-07-22T12:07:27;98050.59;;;29.64;29.61
550;BME280;20066;48.764;9.176;2023-07-22T12:10:00;98048.09;;;28.72;29.40
550;BME280;20066;48.764;9.176;2023-07-22T12:12:33;98057.59;;;27.97;29.62
550;BME280;20066;48.764;9.176;2023-07-22T12:15:03;98048.53;;;27.69;31.19
550;BME280;20066;48.764;9.176;2023-07-22T12:17:43;98041.47;;;27.56;31.19
550;BME280;20066;48.764;9.176;2023-07-22T12:20:12;98047.31;;;26.71;31.09
550;BME280;20066;48.764;9.176;2023-07-22T12:22:41;98038.59;;;29.09;27.99
550;BME280;20066;48.764;9.176;2023-07-22T12:25:10;98039.94;;;29.38;30.08
550;BME280;20066;48.764;9.176;2023-07-22T12:27:38;98034.50;;;29.86;27.98
550;BME280;20066;48.764;9.176;2023-07-22T12:30:07;98035.34;;;28.53;29.69
550;BME280;20066;48.764;9.176;2023-07-22T12:32:35;98031.84;;;31.10;27.59
550;BME280;20066;48.764;9.176;2023-07-22T12:35:03;98038.22;;;31.43;26.04
550;BME280;20066;48.764;9.176;2023-07-22T12:37:31;98026.72;;;30.09;25.16
550;BME280;20066;48.764;9.176;2023-07-22T12:39:59;98025.19;;;29.60;27.67
550;BME280;20066;48.764;9.176;2023-07-22T12:42:29;98010.56;;;27.47;29.09
550;BME280;20066;48.764;9.176;2023-07-22T12:44:56;98012.09;;;27.87;29.09
550;BME280;20066;48.764;9.176;2023-07-22T12:47:24;98010.69;;;29.07;27.82
550;BME280;20066;48.764;9.176;2023-07-22T12:49:52;98011.06;;;28.76;26.42
550;BME280;20066;48.764;9.176;2023-07-22T12:52:20;98007.56;;;27.45;29.24
550;BME280;20066;48.764;9.176;2023-07-22T12:54:48;98004.72;;;28.23;28.65
550;BME280;20066;48.764;9.176;2023-07-22T12:57:16;98016.53;;;28.23;28.19
550;BME280;20066;48.764;9.176;2023-07-22T12:59:45;98008.72;;;26.94;30.53
550;BME280;20066;48.764;9.176;2023-07-22T13:02:15;98011.91;;;29.12;28.29
550;BME280;20066;48.764;9.176;2023-07-22T13:04:43;98012.50;;;31.55;24.19
550;BME280;20066;48.764;9.176;2023-07-22T13:07:12;98003.53;;;27.74;28.54
550;BME280;20066;48.764;9.176;2023-07-22T13:09:40;98003.03;;;27.36;29.26
550;BME280;20066;48.764;9.176;2023-07-22T13:12:09;98011.19;;;28.53;27.28
550;BME280;20066;48.764;9.176;2023-07-22T13:14:37;97996.38;;;28.45;26.89
550;BME280;20066;48.764;9.176;2023-07-22T13:17:06;97989.38;;;29.86;25.55
550;BME280;20066;48.764;9.176;2023-07-22T13:19:34;97990.94;;;31.74;24.79
550;BME280;20066;48.764;9.176;2023-07-22T13:22:02;97993.41;;;32.44;23.03
550;BME280;20066;48.764;9.176;2023-07-22T13:24:30;98000.53;;;33.26;21.80
550;BME280;20066;48.764;9.176;2023-07-22T13:26:58;98000.91;;;31.51;23.51
550;BME280;20066;48.764;9.176;2023-07-22T13:29:26;98004.47;;;31.65;23.19
550;BME280;20066;48.764;9.176;2023-07-22T13:31:54;98002.78;;;33.48;23.25
550;BME280;20066;48.764;9.176;2023-07-22T13:34:24;97989.97;;;31.40;23.28